sensor_id;sensor_type;location;lat;lon;timestamp;pressure;altitude;pressure_sealevel;temperature;humidity
11936;BME280;6027;48.576;9.180;2023-06-05T00:00:37;96925.38;;;16.22;54.20
11936;BME280;6027;48.576;9.180;2023-06-05T00:03:03;96926.28;;;16.16;54.74
11936;BME280;6027;48.576;9.180;2023-06-05T00:05:29;96921.97;;;16.15;55.27
11936;BME280;6027;48.576;9.180;2023-06-05T00:07:55;96922.22;;;16.07;56.55
11936;BME280;6027;48.576;9.180;2023-06-05T00:10:20;96927.94;;;16.10;57.91
11936;BME280;6027;48.576;9.180;2023-06-05T00:12:46;96922.63;;;16.04;58.65
11936;BME280;6027;48.576;9.180;2023-06-05T00:15:12;96915.25;;;15.99;58.28
11936;BME280;6027;48.576;9.180;2023-06-05T00:17:37;96930.81;;;16.09;57.83
11936;BME280;6027;48.576;9.180;2023-06-05T00:20:03;96931.69;;;16.03;57.92
11936;BME280;6027;48.576;9.180;2023-06-05T00:22:29;96929.00;;;16.03;58.05
11936;BME280;6027;48.576;9.180;2023-06-05T00:24:56;96925.31;;;16.04;57.40
11936;BME280;6027;48.576;9.180;2023-06-05T00:27:22;96927.66;;;15.87;57.20
11936;BME280;6027;48.576;9.180;2023-06-05T00:29:48;96920.25;;;15.96;57.60
11936;BME280;6027;48.576;9.180;2023-06-05T00:32:14;96921.63;;;15.98;56.73
11936;BME280;6027;48.576;9.180;2023-06-05T00:34:39;96919.22;;;15.97;57.13
11936;BME280;6027;48.576;9.180;2023-06-05T00:37:05;96924.97;;;15.94;57.86
11936;BME280;6027;48.576;9.180;2023-06-05T00:39:32;96919.25;;;15.83;57.40
11936;BME280;6027;48.576;9.180;2023-06-05T00:41:57;96928.81;;;15.66;57.96
11936;BME280;6027;48.576;9.180;2023-06-05T00:44:23;96925.09;;;15.67;58.86
11936;BME280;6027;48.576;9.180;2023-06-05T00:46:50;96917.88;;;15.74;59.37
11936;BME280;6027;48.576;9.180;2023-06-05T00:49:17;96925.91;;;15.74;59.30
11936;BME280;6027;48.576;9.180;2023-06-05T00:51:44;96918.44;;;15.83;59.82
11936;BME280;6027;48.576;9.180;2023-06-05T00:54:10;96912.91;;;15.84;59.73
11936;BME280;6027;48.576;9.180;2023-06-05T00:56:37;96929.94;;;15.83;59.16
11936;BME280;6027;48.576;9.180;2023-06-05T00:59:05;96928.16;;;15.77;59.42
11936;BME280;6027;48.576;9.180;2023-06-05T01:01:31;96929.00;;;15.71;59.76
11936;BME280;6027;48.576;9.180;2023-06-05T01:03:58;96930.63;;;15.72;59.93
11936;BME280;6027;48.576;9.180;2023-06-05T01:06:28;96936.59;;;15.68;59.96
11936;BME280;6027;48.576;9.180;2023-06-05T01:08:56;96930.44;;;15.67;60.27
11936;BME280;6027;48.576;9.180;2023-06-05T01:11:31;96938.91;;;15.51;60.67
11936;BME280;6027;48.576;9.180;2023-06-05T01:14:07;96937.91;;;15.45;61.51
11936;BME280;6027;48.576;9.180;2023-06-05T01:16:35;96932.63;;;15.26;62.33
11936;BME280;6027;48.576;9.180;2023-06-05T01:19:02;96940.69;;;15.06;63.36
11936;BME280;6027;48.576;9.180;2023-06-05T01:21:28;96940.72;;;14.99;64.19
11936;BME280;6027;48.576;9.180;2023-06-05T01:23:54;96937.22;;;14.92;65.13
11936;BME280;6027;48.576;9.180;2023-06-05T01:26:30;96934.41;;;14.61;66.18
11936;BME280;6027;48.576;9.180;2023-06-05T01:28:59;96925.19;;;14.57;65.99
11936;BME280;6027;48.576;9.180;2023-06-05T01:31:27;96933.97;;;14.50;66.39
11936;BME280;6027;48.576;9.180;2023-06-05T01:33:57;96924.53;;;14.48;66.71
11936;BME280;6027;48.576;9.180;2023-06-05T01:36:27;96931.31;;;14.44;66.49
11936;BME280;6027;48.576;9.180;2023-06-05T01:38:54;96926.41;;;14.41;66.29
11936;BME280;6027;48.576;9.180;2023-06-05T01:41:21;96931.50;;;14.23;67.67
11936;BME280;6027;48.576;9.180;2023-06-05T01:43:47;96937.03;;;14.21;68.06
11936;BME280;6027;48.576;9.180;2023-06-05T01:46:17;96935.19;;;14.22;68.42
11936;BME280;6027;48.576;9.180;2023-06-05T01:48:44;96933.06;;;13.91;70.33
11936;BME280;6027;48.576;9.180;2023-06-05T01:51:10;96925.91;;;13.91;70.47
11936;BME280;6027;48.576;9.180;2023-06-05T01:53:35;96932.84;;;13.86;70.37
11936;BME280;6027;48.576;9.180;2023-06-05T01:56:01;96922.81;;;13.81;70.39
11936;BME280;6027;48.576;9.180;2023-06-05T01:58:27;96922.00;;;13.80;69.86
11936;BME280;6027;48.576;9.180;2023-06-05T02:00:53;96922.81;;;13.81;69.86
11936;BME280;6027;48.576;9.180;2023-06-05T02:03:22;96915.44;;;13.90;69.16
11936;BME280;6027;48.576;9.180;2023-06-05T02:05:48;96922.00;;;13.80;69.04
11936;BME280;6027;48.576;9.180;2023-06-05T02:08:14;96917.28;;;13.76;69.53
11936;BME280;6027;48.576;9.180;2023-06-05T02:10:47;96922.38;;;13.64;69.89
11936;BME280;6027;48.576;9.180;2023-06-05T02:13:13;96919.91;;;13.69;70.54
11936;BME280;6027;48.576;9.180;2023-06-05T02:15:41;96919.28;;;13.61;71.33
11936;BME280;6027;48.576;9.180;2023-06-05T02:18:07;96915.78;;;13.54;71.48
11936;BME280;6027;48.576;9.180;2023-06-05T02:20:33;96920.69;;;13.57;71.79
11936;BME280;6027;48.576;9.180;2023-06-05T02:23:00;96921.75;;;13.69;71.42
11936;BME280;6027;48.576;9.180;2023-06-05T02:25:25;96914.16;;;13.59;71.84
11936;BME280;6027;48.576;9.180;2023-06-05T02:27:52;96926.81;;;13.44;73.97
11936;BME280;6027;48.576;9.180;2023-06-05T02:30:18;96925.31;;;13.35;74.30
11936;BME280;6027;48.576;9.180;2023-06-05T02:32:43;96922.59;;;13.22;74.52
11936;BME280;6027;48.576;9.180;2023-06-05T02:35:10;96917.69;;;13.19;74.29
11936;BME280;6027;48.576;9.180;2023-06-05T02:37:36;96917.53;;;13.27;74.24
11936;BME280;6027;48.576;9.180;2023-06-05T02:40:13;96892.94;;;13.18;73.05
11936;BME280;6027;48.576;9.180;2023-06-05T02:42:38;96918.81;;;13.44;72.52
11936;BME280;6027;48.576;9.180;2023-06-05T02:45:04;96918.19;;;13.42;71.54
11936;BME280;6027;48.576;9.180;2023-06-05T02:47:31;96924.34;;;13.42;71.82
11936;BME280;6027;48.576;9.180;2023-06-05T02:50:00;96925.50;;;13.33;71.99
11936;BME280;6027;48.576;9.180;2023-06-05T02:52:26;96910.38;;;13.34;71.62
11936;BME280;6027;48.576;9.180;2023-06-05T02:54:57;96918.75;;;13.31;72.03
11936;BME280;6027;48.576;9.180;2023-06-05T02:57:22;96915.66;;;13.21;73.33
11936;BME280;6027;48.576;9.180;2023-06-05T02:59:48;96915.97;;;13.11;73.78
11936;BME280;6027;48.576;9.180;2023-06-05T03:02:14;96918.81;;;12.75;76.60
11936;BME280;6027;48.576;9.180;2023-06-05T03:04:46;96922.28;;;12.69;77.15
11936;BME280;6027;48.576;9.180;2023-06-05T03:07:14;96916.41;;;12.80;76.98
11936;BME280;6027;48.576;9.180;2023-06-05T03:09:40;96925.00;;;12.82;77.00
11936;BME280;6027;48.576;9.180;2023-06-05T03:12:05;96922.34;;;12.82;76.64
11936;BME280;6027;48.576;9.180;2023-06-05T03:14:31;96914.63;;;12.87;76.03
11936;BME280;6027;48.576;9.180;2023-06-05T03:16:56;96916.66;;;12.85;76.21
11936;BME280;6027;48.576;9.180;2023-06-05T03:19:24;96918.19;;;12.73;77.23
11936;BME280;6027;48.576;9.180;2023-06-05T03:21:50;96924.56;;;12.78;77.90
11936;BME280;6027;48.576;9.180;2023-06-05T03:24:16;96922.94;;;12.77;77.60
11936;BME280;6027;48.576;9.180;2023-06-05T03:26:42;96913.69;;;12.73;77.68
11936;BME280;6027;48.576;9.180;2023-06-05T03:29:09;96923.91;;;12.70;78.00
11936;BME280;6027;48.576;9.180;2023-06-05T03:31:35;96924.53;;;12.72;78.04
11936;BME280;6027;48.576;9.180;2023-06-05T03:34:01;96929.44;;;12.68;78.79
11936;BME280;6027;48.576;9.180;2023-06-05T03:36:28;96926.13;;;12.66;78.34
11936;BME280;6027;48.576;9.180;2023-06-05T03:38:55;96923.63;;;12.58;79.19
11936;BME280;6027;48.576;9.180;2023-06-05T03:41:20;96924.03;;;12.34;79.93
11936;BME280;6027;48.576;9.180;2023-06-05T03:43:47;96926.97;;;12.18;80.17
11936;BME280;6027;48.576;9.180;2023-06-05T03:46:15;96931.97;;;12.06;80.66
11936;BME280;6027;48.576;9.180;2023-06-05T03:48:48;96936.75;;;11.96;81.07
11936;BME280;6027;48.576;9.180;2023-06-05T03:51:25;96932.97;;;11.84;82.69
11936;BME280;6027;48.576;9.180;2023-06-05T03:53:55;96932.34;;;11.82;82.63
11936;BME280;6027;48.576;9.180;2023-06-05T03:56:21;96927.16;;;11.95;82.63
11936;BME280;6027;48.576;9.180;2023-06-05T03:58:48;96939.69;;;12.01;81.72
11936;BME280;6027;48.576;9.180;2023-06-05T04:01:14;96938.94;;;12.07;82.26
11936;BME280;6027;48.576;9.180;2023-06-05T04:03:39;96937.59;;;11.96;82.50
11936;BME280;6027;48.576;9.180;2023-06-05T04:06:05;96937.91;;;11.87;82.66
11936;BME280;6027;48.576;9.180;2023-06-05T04:08:31;96939.59;;;11.94;82.93
11936;BME280;6027;48.576;9.180;2023-06-05T04:10:57;96932.22;;;11.90;83.33
11936;BME280;6027;48.576;9.180;2023-06-05T04:13:22;96933.63;;;11.71;84.65
11936;BME280;6027;48.576;9.180;2023-06-05T04:15:48;96940.66;;;11.79;84.40
11936;BME280;6027;48.576;9.180;2023-06-05T04:18:14;96940.28;;;11.82;84.14
11936;BME280;6027;48.576;9.180;2023-06-05T04:20:40;96944.41;;;11.84;84.08
11936;BME280;6027;48.576;9.180;2023-06-05T04:23:05;96943.41;;;11.85;84.55
11936;BME280;6027;48.576;9.180;2023-06-05T04:25:30;96946.75;;;11.94;84.50
11936;BME280;6027;48.576;9.180;2023-06-05T04:27:56;96945.63;;;12.03;84.55
11936;BME280;6027;48.576;9.180;2023-06-05T04:30:22;96952.38;;;12.05;84.11
11936;BME280;6027;48.576;9.180;2023-06-05T04:32:47;96956.13;;;12.11;84.05
11936;BME280;6027;48.576;9.180;2023-06-05T04:35:22;96953.13;;;12.21;84.08
11936;BME280;6027;48.576;9.180;2023-06-05T04:37:48;96949.53;;;12.28;83.70
11936;BME280;6027;48.576;9.180;2023-06-05T04:40:14;96954.50;;;12.38;84.16
11936;BME280;6027;48.576;9.180;2023-06-05T04:42:40;96952.38;;;12.48;83.62
11936;BME280;6027;48.576;9.180;2023-06-05T04:45:07;96943.38;;;12.49;83.95
11936;BME280;6027;48.576;9.180;2023-06-05T04:47:35;96951.00;;;12.31;84.45
11936;BME280;6027;48.576;9.180;2023-06-05T04:50:03;96952.41;;;12.33;84.70
11936;BME280;6027;48.576;9.180;2023-06-05T04:52:33;96957.69;;;12.27;84.32
11936;BME280;6027;48.576;9.180;2023-06-05T04:55:02;96959.97;;;12.30;84.83
11936;BME280;6027;48.576;9.180;2023-06-05T04:57:28;96953.31;;;12.40;84.26
11936;BME280;6027;48.576;9.180;2023-06-05T04:59:54;96950.66;;;12.40;84.69
11936;BME280;6027;48.576;9.180;2023-06-05T05:02:20;96951.22;;;12.15;87.55
11936;BME280;6027;48.576;9.180;2023-06-05T05:04:47;96946.81;;;12.22;87.00
11936;BME280;6027;48.576;9.180;2023-06-05T05:07:12;96956.16;;;12.18;88.04
11936;BME280;6027;48.576;9.180;2023-06-05T05:09:44;96950.47;;;11.99;89.44
11936;BME280;6027;48.576;9.180;2023-06-05T05:12:10;96946.69;;;12.08;89.45
11936;BME280;6027;48.576;9.180;2023-06-05T05:14:37;96954.03;;;12.28;88.26
11936;BME280;6027;48.576;9.180;2023-06-05T05:17:03;96951.75;;;12.03;89.56
11936;BME280;6027;48.576;9.180;2023-06-05T05:19:29;96954.47;;;12.10;89.64
11936;BME280;6027;48.576;9.180;2023-06-05T05:21:54;96953.50;;;12.18;89.45
11936;BME280;6027;48.576;9.180;2023-06-05T05:24:20;96952.88;;;11.94;91.66
11936;BME280;6027;48.576;9.180;2023-06-05T05:26:45;96934.69;;;11.91;92.58
11936;BME280;6027;48.576;9.180;2023-06-05T05:29:11;96946.28;;;12.33;89.80
11936;BME280;6027;48.576;9.180;2023-06-05T05:31:36;96947.09;;;12.55;88.19
11936;BME280;6027;48.576;9.180;2023-06-05T05:34:02;96947.97;;;12.62;87.42
11936;BME280;6027;48.576;9.180;2023-06-05T05:36:28;96943.84;;;12.59;88.26
11936;BME280;6027;48.576;9.180;2023-06-05T05:38:54;96954.34;;;12.67;88.90
11936;BME280;6027;48.576;9.180;2023-06-05T05:41:20;96956.84;;;12.75;88.86
11936;BME280;6027;48.576;9.180;2023-06-05T05:43:46;96963.09;;;12.89;87.36
11936;BME280;6027;48.576;9.180;2023-06-05T05:46:11;96953.03;;;12.85;88.16
11936;BME280;6027;48.576;9.180;2023-06-05T05:48:37;96952.03;;;12.92;88.29
11936;BME280;6027;48.576;9.180;2023-06-05T05:51:04;96957.53;;;12.84;89.12
11936;BME280;6027;48.576;9.180;2023-06-05T05:53:30;96963.75;;;12.98;89.23
11936;BME280;6027;48.576;9.180;2023-06-05T05:55:56;96959.69;;;13.02;89.38
11936;BME280;6027;48.576;9.180;2023-06-05T05:58:22;96954.28;;;13.17;88.45
11936;BME280;6027;48.576;9.180;2023-06-05T06:00:47;96959.06;;;13.34;86.99
11936;BME280;6027;48.576;9.180;2023-06-05T06:03:13;96962.78;;;13.40;86.83
11936;BME280;6027;48.576;9.180;2023-06-05T06:05:40;96962.84;;;13.53;86.90
11936;BME280;6027;48.576;9.180;2023-06-05T06:08:05;96968.19;;;13.60;87.08
11936;BME280;6027;48.576;9.180;2023-06-05T06:10:32;96967.41;;;13.72;86.75
11936;BME280;6027;48.576;9.180;2023-06-05T06:12:58;96967.63;;;13.77;87.01
11936;BME280;6027;48.576;9.180;2023-06-05T06:15:23;96966.41;;;13.80;88.41
11936;BME280;6027;48.576;9.180;2023-06-05T06:17:49;96967.47;;;13.92;88.23
11936;BME280;6027;48.576;9.180;2023-06-05T06:20:15;96968.75;;;14.03;86.93
11936;BME280;6027;48.576;9.180;2023-06-05T06:22:43;96966.50;;;14.26;84.77
11936;BME280;6027;48.576;9.180;2023-06-05T06:25:11;96963.88;;;14.39;82.78
11936;BME280;6027;48.576;9.180;2023-06-05T06:27:38;96959.19;;;14.55;76.32
11936;BME280;6027;48.576;9.180;2023-06-05T06:30:04;96955.91;;;14.59;76.34
11936;BME280;6027;48.576;9.180;2023-06-05T06:32:30;96956.94;;;14.71;77.33
11936;BME280;6027;48.576;9.180;2023-06-05T06:34:56;96960.63;;;14.77;76.26
11936;BME280;6027;48.576;9.180;2023-06-05T06:37:22;96958.56;;;14.92;74.53
11936;BME280;6027;48.576;9.180;2023-06-05T06:39:48;96957.53;;;14.93;75.39
11936;BME280;6027;48.576;9.180;2023-06-05T06:42:14;96957.91;;;15.03;73.75
11936;BME280;6027;48.576;9.180;2023-06-05T06:44:39;96962.81;;;15.19;74.38
11936;BME280;6027;48.576;9.180;2023-06-05T06:47:05;96961.34;;;15.30;74.24
11936;BME280;6027;48.576;9.180;2023-06-05T06:49:31;96966.63;;;15.43;74.60
11936;BME280;6027;48.576;9.180;2023-06-05T06:51:57;96960.47;;;15.43;72.70
11936;BME280;6027;48.576;9.180;2023-06-05T06:54:22;96969.50;;;15.48;72.48
11936;BME280;6027;48.576;9.180;2023-06-05T06:56:50;96970.06;;;15.64;67.73
11936;BME280;6027;48.576;9.180;2023-06-05T06:59:16;96964.91;;;15.75;66.47
11936;BME280;6027;48.576;9.180;2023-06-05T07:01:45;96972.25;;;15.86;65.56
11936;BME280;6027;48.576;9.180;2023-06-05T07:04:15;96966.47;;;15.96;66.90
11936;BME280;6027;48.576;9.180;2023-06-05T07:06:47;96974.63;;;16.01;66.80
11936;BME280;6027;48.576;9.180;2023-06-05T07:09:13;96967.41;;;16.08;65.49
11936;BME280;6027;48.576;9.180;2023-06-05T07:11:39;96965.13;;;16.12;66.07
11936;BME280;6027;48.576;9.180;2023-06-05T07:14:04;96967.53;;;16.20;67.38
11936;BME280;6027;48.576;9.180;2023-06-05T07:16:30;96965.06;;;16.18;63.35
11936;BME280;6027;48.576;9.180;2023-06-05T07:18:56;96955.59;;;16.22;64.02
11936;BME280;6027;48.576;9.180;2023-06-05T07:21:22;96960.19;;;16.40;60.72
11936;BME280;6027;48.576;9.180;2023-06-05T07:23:50;96963.81;;;16.52;58.18
11936;BME280;6027;48.576;9.180;2023-06-05T07:26:17;96968.06;;;16.60;59.91
11936;BME280;6027;48.576;9.180;2023-06-05T07:28:43;96967.22;;;16.66;60.72
11936;BME280;6027;48.576;9.180;2023-06-05T07:31:08;96964.66;;;16.78;56.58
11936;BME280;6027;48.576;9.180;2023-06-05T07:33:35;96957.25;;;16.80;57.68
11936;BME280;6027;48.576;9.180;2023-06-05T07:36:01;96943.94;;;16.73;57.97
11936;BME280;6027;48.576;9.180;2023-06-05T07:38:27;96961.28;;;16.89;57.98
11936;BME280;6027;48.576;9.180;2023-06-05T07:40:52;96958.25;;;17.04;59.23
11936;BME280;6027;48.576;9.180;2023-06-05T07:43:18;96966.06;;;17.05;59.56
11936;BME280;6027;48.576;9.180;2023-06-05T07:45:43;96966.81;;;17.12;60.84
11936;BME280;6027;48.576;9.180;2023-06-05T07:48:09;96972.03;;;17.25;61.00
11936;BME280;6027;48.576;9.180;2023-06-05T07:50:34;96962.81;;;17.40;60.30
11936;BME280;6027;48.576;9.180;2023-06-05T07:53:00;96963.84;;;17.39;61.65
11936;BME280;6027;48.576;9.180;2023-06-05T07:55:27;96963.13;;;17.50;60.80
11936;BME280;6027;48.576;9.180;2023-06-05T07:57:53;96963.16;;;17.68;59.74
11936;BME280;6027;48.576;9.180;2023-06-05T08:00:18;96960.38;;;17.75;59.70
11936;BME280;6027;48.576;9.180;2023-06-05T08:02:44;96952.47;;;17.80;59.61
11936;BME280;6027;48.576;9.180;2023-06-05T08:05:10;96955.53;;;17.83;60.43
11936;BME280;6027;48.576;9.180;2023-06-05T08:07:36;96953.00;;;17.88;61.07
11936;BME280;6027;48.576;9.180;2023-06-05T08:10:01;96948.06;;;18.04;60.06
11936;BME280;6027;48.576;9.180;2023-06-05T08:12:27;96950.97;;;18.14;61.35
11936;BME280;6027;48.576;9.180;2023-06-05T08:14:53;96946.59;;;18.19;60.65
11936;BME280;6027;48.576;9.180;2023-06-05T08:17:19;96946.94;;;18.23;60.29
11936;BME280;6027;48.576;9.180;2023-06-05T08:19:44;96944.16;;;18.29;62.55
11936;BME280;6027;48.576;9.180;2023-06-05T08:22:10;96941.75;;;18.40;61.75
11936;BME280;6027;48.576;9.180;2023-06-05T08:24:37;96940.25;;;18.44;61.57
11936;BME280;6027;48.576;9.180;2023-06-05T08:27:02;96945.16;;;18.47;62.79
11936;BME280;6027;48.576;9.180;2023-06-05T08:29:28;96939.81;;;18.58;62.80
11936;BME280;6027;48.576;9.180;2023-06-05T08:31:54;96935.19;;;18.66;63.24
11936;BME280;6027;48.576;9.180;2023-06-05T08:34:19;96940.22;;;18.85;63.01
11936;BME280;6027;48.576;9.180;2023-06-05T08:36:45;96930.97;;;18.93;63.26
11936;BME280;6027;48.576;9.180;2023-06-05T08:39:11;96929.91;;;19.06;62.10
11936;BME280;6027;48.576;9.180;2023-06-05T08:41:36;96932.38;;;19.07;61.77
11936;BME280;6027;48.576;9.180;2023-06-05T08:44:03;96937.28;;;19.22;61.86
11936;BME280;6027;48.576;9.180;2023-06-05T08:46:29;96934.00;;;19.31;61.71
11936;BME280;6027;48.576;9.180;2023-06-05T08:48:57;96928.25;;;19.40;61.70
11936;BME280;6027;48.576;9.180;2023-06-05T08:51:22;96920.78;;;19.42;61.32
11936;BME280;6027;48.576;9.180;2023-06-05T08:53:54;96926.16;;;19.53;62.32
11936;BME280;6027;48.576;9.180;2023-06-05T08:56:22;96923.53;;;19.70;63.43
11936;BME280;6027;48.576;9.180;2023-06-05T08:58:49;96936.59;;;19.78;63.69
11936;BME280;6027;48.576;9.180;2023-06-05T09:01:15;96922.88;;;19.91;63.83
11936;BME280;6027;48.576;9.180;2023-06-05T09:03:41;96914.28;;;20.06;62.60
11936;BME280;6027;48.576;9.180;2023-06-05T09:06:10;96914.13;;;20.13;63.29
11936;BME280;6027;48.576;9.180;2023-06-05T09:08:35;96915.94;;;20.24;63.79
11936;BME280;6027;48.576;9.180;2023-06-05T09:13:47;96920.53;;;20.40;63.22
11936;BME280;6027;48.576;9.180;2023-06-05T09:16:12;96911.19;;;20.43;62.79
11936;BME280;6027;48.576;9.180;2023-06-05T09:21:19;96919.75;;;20.73;60.33
11936;BME280;6027;48.576;9.180;2023-06-05T09:23:44;96918.47;;;20.76;60.02
11936;BME280;6027;48.576;9.180;2023-06-05T09:26:10;96910.38;;;20.76;61.09
11936;BME280;6027;48.576;9.180;2023-06-05T09:28:52;96909.13;;;20.83;59.54
11936;BME280;6027;48.576;9.180;2023-06-05T09:31:19;96905.13;;;20.86;60.14
11936;BME280;6027;48.576;9.180;2023-06-05T09:33:53;96912.81;;;20.94;59.83
11936;BME280;6027;48.576;9.180;2023-06-05T09:36:19;96916.94;;;21.01;58.91
11936;BME280;6027;48.576;9.180;2023-06-05T09:38:46;96907.06;;;21.07;58.50
11936;BME280;6027;48.576;9.180;2023-06-05T09:41:13;96913.09;;;21.14;57.66
11936;BME280;6027;48.576;9.180;2023-06-05T09:43:44;96913.75;;;21.21;55.64
11936;BME280;6027;48.576;9.180;2023-06-05T09:46:12;96901.81;;;21.34;55.46
11936;BME280;6027;48.576;9.180;2023-06-05T09:48:39;96895.47;;;21.45;55.55
11936;BME280;6027;48.576;9.180;2023-06-05T09:51:15;96903.97;;;21.54;55.88
11936;BME280;6027;48.576;9.180;2023-06-05T09:53:43;96903.00;;;21.65;56.10
11936;BME280;6027;48.576;9.180;2023-06-05T09:56:12;96899.31;;;21.71;54.15
11936;BME280;6027;48.576;9.180;2023-06-05T09:58:41;96893.41;;;21.74;54.02
11936;BME280;6027;48.576;9.180;2023-06-05T10:01:08;96897.91;;;21.90;53.37
11936;BME280;6027;48.576;9.180;2023-06-05T10:03:36;96892.00;;;21.93;51.17
11936;BME280;6027;48.576;9.180;2023-06-05T10:06:04;96893.19;;;21.81;49.40
11936;BME280;6027;48.576;9.180;2023-06-05T10:08:30;96882.00;;;21.94;50.96
11936;BME280;6027;48.576;9.180;2023-06-05T10:10:57;96883.13;;;21.98;53.25
11936;BME280;6027;48.576;9.180;2023-06-05T10:13:23;96894.56;;;22.05;52.77
11936;BME280;6027;48.576;9.180;2023-06-05T10:15:50;96897.03;;;22.07;53.70
11936;BME280;6027;48.576;9.180;2023-06-05T10:18:17;96896.03;;;22.18;51.06
11936;BME280;6027;48.576;9.180;2023-06-05T10:20:43;96885.38;;;22.28;50.61
11936;BME280;6027;48.576;9.180;2023-06-05T10:23:15;96878.84;;;22.24;49.85
11936;BME280;6027;48.576;9.180;2023-06-05T10:25:43;96882.69;;;22.33;51.73
11936;BME280;6027;48.576;9.180;2023-06-05T10:31:31;96884.22;;;22.51;49.84
11936;BME280;6027;48.576;9.180;2023-06-05T10:34:18;96882.03;;;22.53;48.63
11936;BME280;6027;48.576;9.180;2023-06-05T10:37:28;96879.94;;;22.60;48.79
11936;BME280;6027;48.576;9.180;2023-06-05T10:39:50;96875.88;;;22.57;50.67
11936;BME280;6027;48.576;9.180;2023-06-05T10:42:24;96871.16;;;22.74;46.93
11936;BME280;6027;48.576;9.180;2023-06-05T10:44:50;96873.28;;;22.72;46.88
11936;BME280;6027;48.576;9.180;2023-06-05T10:52:49;96867.34;;;23.13;45.70
11936;BME280;6027;48.576;9.180;2023-06-05T10:55:15;96864.69;;;23.18;44.54
11936;BME280;6027;48.576;9.180;2023-06-05T10:58:12;96868.16;;;23.13;44.56
11936;BME280;6027;48.576;9.180;2023-06-05T11:01:17;96852.75;;;23.03;43.60
11936;BME280;6027;48.576;9.180;2023-06-05T11:03:59;96859.00;;;23.09;43.71
11936;BME280;6027;48.576;9.180;2023-06-05T11:06:26;96859.81;;;23.15;43.53
11936;BME280;6027;48.576;9.180;2023-06-05T11:09:12;96854.44;;;23.20;43.47
11936;BME280;6027;48.576;9.180;2023-06-05T11:11:57;96856.91;;;23.26;43.68
11936;BME280;6027;48.576;9.180;2023-06-05T11:14:24;96861.28;;;23.37;42.73
11936;BME280;6027;48.576;9.180;2023-06-05T11:17:34;96853.13;;;23.32;43.21
11936;BME280;6027;48.576;9.180;2023-06-05T11:20:04;96859.09;;;23.34;42.77
11936;BME280;6027;48.576;9.180;2023-06-05T11:27:58;96851.84;;;23.45;41.61
11936;BME280;6027;48.576;9.180;2023-06-05T11:30:41;96853.75;;;23.45;41.86
11936;BME280;6027;48.576;9.180;2023-06-05T11:33:12;96847.84;;;23.53;43.87
11936;BME280;6027;48.576;9.180;2023-06-05T11:35:43;96841.94;;;23.61;41.67
11936;BME280;6027;48.576;9.180;2023-06-05T11:38:17;96840.56;;;23.58;41.60
11936;BME280;6027;48.576;9.180;2023-06-05T11:40:44;96850.88;;;23.66;41.55
11936;BME280;6027;48.576;9.180;2023-06-05T11:43:11;96850.03;;;23.56;40.55
11936;BME280;6027;48.576;9.180;2023-06-05T11:45:39;96844.81;;;23.44;40.25
11936;BME280;6027;48.576;9.180;2023-06-05T11:48:13;96842.38;;;23.42;40.15
11936;BME280;6027;48.576;9.180;2023-06-05T11:50:42;96840.72;;;23.36;41.64
11936;BME280;6027;48.576;9.180;2023-06-05T11:53:17;96837.59;;;23.55;40.73
11936;BME280;6027;48.576;9.180;2023-06-05T11:55:42;96837.63;;;23.70;40.10
11936;BME280;6027;48.576;9.180;2023-06-05T11:58:23;96830.91;;;23.77;41.83
11936;BME280;6027;48.576;9.180;2023-06-05T12:00:50;96833.34;;;23.84;40.55
11936;BME280;6027;48.576;9.180;2023-06-05T12:03:22;96836.59;;;23.91;40.63
11936;BME280;6027;48.576;9.180;2023-06-05T12:05:48;96836.06;;;23.84;39.39
11936;BME280;6027;48.576;9.180;2023-06-05T12:08:25;96826.31;;;23.78;39.73
11936;BME280;6027;48.576;9.180;2023-06-05T12:10:52;96826.59;;;23.82;40.02
11936;BME280;6027;48.576;9.180;2023-06-05T12:13:17;96823.34;;;23.85;40.10
11936;BME280;6027;48.576;9.180;2023-06-05T12:15:43;96821.47;;;23.95;39.31
11936;BME280;6027;48.576;9.180;2023-06-05T12:18:20;96814.44;;;24.04;40.82
11936;BME280;6027;48.576;9.180;2023-06-05T12:20:46;96807.41;;;24.14;39.48
11936;BME280;6027;48.576;9.180;2023-06-05T12:23:18;96813.63;;;24.14;39.03
11936;BME280;6027;48.576;9.180;2023-06-05T12:25:44;96803.38;;;24.21;40.40
11936;BME280;6027;48.576;9.180;2023-06-05T12:28:18;96813.09;;;24.22;39.10
11936;BME280;6027;48.576;9.180;2023-06-05T12:30:45;96809.34;;;24.33;39.14
11936;BME280;6027;48.576;9.180;2023-06-05T12:33:10;96812.84;;;24.44;38.30
11936;BME280;6027;48.576;9.180;2023-06-05T12:35:36;96801.75;;;24.35;37.09
11936;BME280;6027;48.576;9.180;2023-06-05T12:38:01;96814.47;;;24.25;37.65
11936;BME280;6027;48.576;9.180;2023-06-05T12:40:27;96807.97;;;24.21;37.68
11936;BME280;6027;48.576;9.180;2023-06-05T12:42:53;96798.75;;;24.17;36.99
11936;BME280;6027;48.576;9.180;2023-06-05T12:45:20;96810.66;;;24.21;36.15
11936;BME280;6027;48.576;9.180;2023-06-05T12:47:47;96807.97;;;24.21;35.26
11936;BME280;6027;48.576;9.180;2023-06-05T12:50:13;96795.53;;;24.25;36.68
11936;BME280;6027;48.576;9.180;2023-06-05T12:52:39;96786.31;;;24.21;35.97
11936;BME280;6027;48.576;9.180;2023-06-05T12:55:05;96792.00;;;24.29;36.85
11936;BME280;6027;48.576;9.180;2023-06-05T12:57:32;96783.91;;;24.34;36.54
11936;BME280;6027;48.576;9.180;2023-06-05T12:59:58;96789.03;;;24.36;37.18
11936;BME280;6027;48.576;9.180;2023-06-05T13:02:24;96788.78;;;24.42;35.59
11936;BME280;6027;48.576;9.180;2023-06-05T13:04:50;96794.44;;;24.46;35.23
11936;BME280;6027;48.576;9.180;2023-06-05T13:07:15;96791.19;;;24.29;35.15
11936;BME280;6027;48.576;9.180;2023-06-05T13:09:42;96787.13;;;24.21;34.71
11936;BME280;6027;48.576;9.180;2023-06-05T13:12:07;96795.78;;;24.18;34.93
11936;BME280;6027;48.576;9.180;2023-06-05T13:14:33;96779.53;;;24.13;35.21
11936;BME280;6027;48.576;9.180;2023-06-05T13:16:59;96777.38;;;24.15;35.49
11936;BME280;6027;48.576;9.180;2023-06-05T13:19:25;96782.81;;;24.40;34.34
11936;BME280;6027;48.576;9.180;2023-06-05T13:21:51;96781.47;;;24.38;33.96
11936;BME280;6027;48.576;9.180;2023-06-05T13:24:17;96787.41;;;24.35;33.28
11936;BME280;6027;48.576;9.180;2023-06-05T13:26:44;96779.84;;;24.37;34.08
11936;BME280;6027;48.576;9.180;2023-06-05T13:29:10;96777.69;;;24.39;34.14
11936;BME280;6027;48.576;9.180;2023-06-05T13:31:36;96783.63;;;24.41;33.32